createdAt,value
2023-05-09T00:00:01.639Z,68.68
2023-05-09T00:15:01.894Z,68.68
2023-05-09T00:30:02.466Z,68.68
2023-05-09T00:45:03.144Z,68.68
2023-05-09T01:00:01.546Z,68.68
2023-05-09T01:15:02.226Z,68.68
2023-05-09T01:30:02.604Z,68.68
2023-05-09T01:45:01.948Z,68.68
2023-05-09T02:00:01.730Z,68.68
2023-05-09T02:15:02.210Z,68.68
2023-05-09T02:30:02.870Z,68.68
2023-05-09T02:45:01.508Z,68.68
2023-05-09T03:00:01.940Z,68.68
2023-05-09T03:15:02.404Z,68.68
2023-05-09T03:30:01.654Z,68.68
2023-05-09T03:45:01.929Z,68.68
2023-05-09T04:00:02.116Z,68.68
2023-05-09T04:15:02.681Z,68.68
2023-05-09T04:30:01.551Z,68.68
2023-05-09T04:45:01.865Z,68.68
2023-05-09T05:00:02.348Z,68.68
2023-05-09T05:15:01.658Z,68.68
2023-05-09T05:30:02.029Z,68.68
2023-05-09T05:45:01.963Z,68.68
2023-05-09T06:00:02.569Z,68.68
2023-05-09T06:15:01.841Z,68.68
2023-05-09T06:30:06.138Z,68.68
2023-05-09T06:45:02.167Z,68.68
2023-05-09T07:00:02.662Z,68.68
2023-05-09T07:15:01.860Z,68.68
2023-05-09T07:30:02.183Z,68.68
2023-05-09T07:45:02.309Z,68.68
2023-05-09T08:00:02.966Z,68.68
2023-05-09T08:15:01.965Z,68.68
2023-05-09T08:30:01.899Z,68.68
2023-05-09T08:45:02.307Z,68.68
2023-05-09T09:00:03.017Z,68.68
2023-05-09T09:15:01.924Z,68.68
2023-05-09T09:30:02.296Z,75.64
2023-05-09T09:45:01.781Z,78.52
2023-05-09T10:00:01.896Z,78.6
2023-05-09T10:15:01.657Z,71.72
2023-05-09T10:30:01.715Z,69.94
2023-05-09T10:45:02.257Z,69.45
2023-05-09T11:00:01.452Z,69.45
2023-05-09T11:15:01.950Z,69.45
2023-05-09T11:30:02.361Z,56.7
2023-05-09T11:45:01.634Z,50.59
2023-05-09T12:00:02.009Z,50.59
2023-05-09T12:15:02.259Z,50.59
2023-05-09T12:30:02.777Z,50.59
2023-05-09T12:45:03.184Z,50.59
2023-05-09T13:00:01.464Z,50.59
2023-05-09T13:15:02.090Z,50.59
2023-05-09T13:30:01.437Z,50.59
2023-05-09T13:45:01.902Z,50.59
2023-05-09T14:00:02.578Z,50.59
2023-05-09T14:15:03.241Z,50.59
2023-05-09T14:30:01.813Z,50.59
2023-05-09T14:45:02.315Z,50.59
2023-05-09T15:00:13.004Z,50.59
2023-05-09T15:15:01.646Z,50.59
2023-05-09T15:30:02.079Z,50.59
2023-05-09T15:45:02.246Z,50.59
2023-05-09T16:00:02.757Z,50.59
2023-05-09T16:15:01.544Z,50.59
2023-05-09T16:30:01.997Z,50.59
2023-05-09T16:45:02.365Z,50.59
2023-05-09T17:00:01.656Z,50.59
2023-05-09T17:15:01.410Z,50.59
2023-05-09T17:30:01.976Z,50.59
2023-05-09T17:45:02.457Z,50.59
2023-05-09T18:00:01.491Z,50.59
2023-05-09T18:15:01.851Z,50.59
2023-05-09T18:30:02.257Z,50.59
2023-05-09T18:45:02.655Z,50.59
2023-05-09T19:00:01.929Z,50.59
2023-05-09T19:15:01.895Z,50.59
2023-05-09T19:30:02.282Z,50.59
2023-05-09T19:45:02.782Z,50.59
2023-05-09T20:00:01.988Z,50.59
2023-05-09T20:15:01.851Z,50.59
2023-05-09T20:30:02.421Z,50.59
2023-05-09T20:45:03.017Z,50.59
2023-05-09T21:00:01.510Z,50.59
2023-05-09T21:15:02.066Z,50.59
2023-05-09T21:30:01.437Z,50.59
2023-05-09T21:45:01.794Z,50.59
2023-05-09T22:00:02.157Z,50.59
2023-05-09T22:15:02.372Z,50.59
2023-05-09T22:30:01.942Z,50.59
2023-05-09T22:45:02.087Z,50.59
2023-05-09T23:00:02.050Z,50.59
2023-05-09T23:15:02.600Z,50.59
2023-05-09T23:30:03.232Z,50.59
2023-05-09T23:45:01.619Z,50.59
